PASY METAR and TAF weather

Enter ICAO airport designator
Station Type Date Time Source
PASY METAR 2019/08/24 06:55 UTC NOAA

PASY 240655Z 36009KT 10SM FEW014 BKN042 10/08 A3023 RMK AO2A SLP239 RVRNO


Station Type Date Time Source
PASY Decoded METAR 2019/08/24 06:55 UTC NOAA

Station name not available
Aug 24, 2019 - 02:55 AM EDT / 2019.08.24 0655 UTC
Wind: from the N (360 degrees) at 10 MPH (9 KT):0
Visibility: 10 mile(s):0
Sky conditions: mostly cloudy
Temperature: 50 F (10 C)
Dew Point: 46 F (8 C)
Relative Humidity: 87%
Pressure (altimeter): 30.23 in. Hg (1023 hPa)
ob: PASY 240655Z 36009KT 10SM FEW014 BKN042 10/08 A3023 RMK AO2A SLP239 RVRNO
cycle: 7

Station Type Date Time Source
PASY TAF 2019/08/24 06:26 UTC NOAA

TAF PASY 240600Z 2406/2512 35009KT 9999 SCT015 BKN020 QNH3015INS
BECMG 2412/2413 33006KT 8000 BR BKN005 QNH3010INS TX11/2420Z TN08/2412Z

Example: see airport list